Government of Jersey

Home Log in

Channel Islands Terminal Aerodrome Forecasts (TAFs)

Jersey Airport - EGJJ

EGJJ 231958Z 2321/2406 19010KT 9999 FEW010 BKN030 PROB30 TEMPO 2321/2406 BKN008=

Guernsey Airport - EGJB

EGJB 231958Z 2321/2406 20012KT 9999 FEW010 BKN030 PROB30 TEMPO 2321/2406 BKN008=

Alderney Airport - EGJA

EGJA 231933Z 2319/2400 CNL=